createdAt,value
2022-08-20T00:01:16.219Z,99.90
2022-08-20T00:03:44.862Z,99.90
2022-08-20T00:06:23.259Z,99.90
2022-08-20T00:08:51.099Z,99.90
2022-08-20T00:11:24.251Z,99.90
2022-08-20T00:13:57.650Z,99.90
2022-08-20T00:16:27.174Z,99.90
2022-08-20T00:18:54.305Z,99.90
2022-08-20T00:21:23.197Z,99.90
2022-08-20T00:23:52.959Z,99.90
2022-08-20T00:26:21.215Z,99.90
2022-08-20T00:28:48.480Z,99.90
2022-08-20T00:31:23.039Z,99.90
2022-08-20T00:33:50.821Z,99.90
2022-08-20T00:36:18.021Z,99.90
2022-08-20T00:38:46.849Z,99.90
2022-08-20T00:41:23.105Z,99.90
2022-08-20T00:44:16.590Z,99.90
2022-08-20T00:46:45.288Z,99.90
2022-08-20T00:49:31.332Z,99.90
2022-08-20T00:52:09.128Z,99.90
2022-08-20T00:54:44.368Z,99.90
2022-08-20T00:57:25.574Z,99.90
2022-08-20T00:59:53.168Z,99.90
2022-08-20T01:02:23.321Z,99.90
2022-08-20T01:04:54.623Z,99.90
2022-08-20T01:07:32.253Z,99.90
2022-08-20T01:10:00.756Z,99.90
2022-08-20T01:12:29.649Z,99.90
2022-08-20T01:15:00.272Z,99.90
2022-08-20T01:17:30.302Z,99.90
2022-08-20T01:20:06.413Z,99.90
2022-08-20T01:23:30.271Z,99.90
2022-08-20T01:26:14.922Z,99.90
2022-08-20T01:28:50.345Z,99.90
2022-08-20T01:31:27.529Z,99.90
2022-08-20T01:33:55.841Z,99.90
2022-08-20T01:36:25.540Z,99.90
2022-08-20T01:38:54.566Z,99.90
2022-08-20T01:41:40.223Z,99.90
2022-08-20T01:44:10.966Z,99.90
2022-08-20T01:46:46.126Z,99.90
2022-08-20T01:49:23.309Z,99.90
2022-08-20T01:51:52.733Z,99.90
2022-08-20T01:54:20.055Z,99.90
2022-08-20T01:57:11.782Z,99.90
2022-08-20T01:59:39.569Z,99.90
2022-08-20T02:02:07.089Z,99.90
2022-08-20T02:04:34.445Z,99.90
2022-08-20T02:07:04.200Z,99.90
2022-08-20T02:09:37.881Z,99.90
2022-08-20T02:12:06.046Z,99.90
2022-08-20T02:14:33.259Z,99.90
2022-08-20T02:17:00.561Z,99.90
2022-08-20T02:19:34.117Z,99.90
2022-08-20T02:22:04.397Z,99.90
2022-08-20T02:24:31.181Z,99.90
2022-08-20T02:26:57.943Z,99.90
2022-08-20T02:29:26.020Z,99.90
2022-08-20T02:32:31.188Z,99.90
2022-08-20T02:34:41.171Z,99.90
2022-08-20T02:37:08.768Z,99.90
2022-08-20T02:39:35.653Z,99.90
2022-08-20T02:42:03.871Z,99.90
2022-08-20T02:44:31.192Z,99.90
2022-08-20T02:46:58.469Z,99.90
2022-08-20T02:49:25.285Z,99.90
2022-08-20T02:51:52.050Z,99.90
2022-08-20T02:54:18.938Z,99.90
2022-08-20T02:56:45.640Z,99.90
2022-08-20T02:59:12.550Z,99.90
2022-08-20T03:01:45.918Z,99.90
2022-08-20T03:04:12.677Z,99.90
2022-08-20T03:06:39.566Z,99.90
2022-08-20T03:09:08.869Z,99.90
2022-08-20T03:11:35.776Z,99.90
2022-08-20T03:14:02.546Z,99.90
2022-08-20T03:16:29.294Z,99.90
2022-08-20T03:18:56.030Z,99.90
2022-08-20T03:21:22.757Z,99.90
2022-08-20T03:23:49.553Z,99.90
2022-08-20T03:26:17.342Z,99.90
2022-08-20T03:28:44.108Z,99.90
2022-08-20T03:31:14.873Z,99.90
2022-08-20T03:33:52.315Z,99.90
2022-08-20T03:36:27.755Z,99.90
2022-08-20T03:39:01.168Z,99.90
2022-08-20T03:41:28.969Z,99.90
2022-08-20T03:43:56.160Z,99.90
2022-08-20T03:46:23.954Z,99.90
2022-08-20T03:48:56.319Z,99.90
2022-08-20T03:51:29.024Z,99.90
2022-08-20T03:53:55.858Z,99.90
2022-08-20T03:56:22.629Z,99.90
2022-08-20T03:58:49.411Z,99.90
2022-08-20T04:01:44.544Z,99.90
2022-08-20T04:04:03.410Z,99.90
2022-08-20T04:06:30.422Z,99.90
2022-08-20T04:08:57.282Z,99.90
2022-08-20T04:11:24.400Z,99.90
2022-08-20T04:13:51.396Z,99.90
2022-08-20T04:16:19.472Z,99.90
2022-08-20T04:19:01.754Z,99.90
2022-08-20T04:21:32.782Z,99.90
2022-08-20T04:24:01.372Z,99.90
2022-08-20T04:26:28.245Z,99.90
2022-08-20T04:28:55.610Z,99.90
2022-08-20T04:31:33.366Z,99.90
2022-08-20T04:34:04.418Z,99.90
2022-08-20T04:36:31.362Z,99.90
2022-08-20T04:38:58.207Z,99.90
2022-08-20T04:41:25.018Z,99.90
2022-08-20T04:43:54.070Z,99.90
2022-08-20T04:46:22.447Z,99.90
2022-08-20T04:48:50.401Z,99.90
2022-08-20T04:51:18.779Z,99.90
2022-08-20T04:53:51.858Z,99.90
2022-08-20T04:56:23.304Z,99.90
2022-08-20T04:58:51.232Z,99.90
2022-08-20T05:01:18.601Z,99.90
2022-08-20T05:03:47.909Z,99.90
2022-08-20T05:06:16.288Z,99.90
2022-08-20T05:08:44.138Z,99.90
2022-08-20T05:11:30.175Z,99.90
2022-08-20T05:13:58.786Z,99.90
2022-08-20T05:16:25.819Z,99.90
2022-08-20T05:18:53.080Z,99.90
2022-08-20T05:21:21.246Z,99.90
2022-08-20T05:23:49.295Z,99.90
2022-08-20T05:26:17.128Z,99.90
2022-08-20T05:28:51.202Z,99.90
2022-08-20T05:31:31.607Z,99.90
2022-08-20T05:34:10.342Z,99.90
2022-08-20T05:36:50.560Z,99.90
2022-08-20T05:39:21.599Z,99.90
2022-08-20T05:41:52.232Z,99.90
2022-08-20T05:44:19.849Z,99.90
2022-08-20T05:46:48.141Z,99.90
2022-08-20T05:49:22.214Z,99.90
2022-08-20T05:51:50.903Z,99.90
2022-08-20T05:54:17.750Z,99.90
2022-08-20T05:56:44.627Z,99.90
2022-08-20T05:59:13.935Z,99.90
2022-08-20T06:01:42.105Z,99.90
2022-08-20T06:04:26.707Z,99.90
2022-08-20T06:07:02.479Z,99.90
2022-08-20T06:09:32.178Z,99.90
2022-08-20T06:12:06.042Z,99.90
2022-08-20T06:14:33.748Z,99.90
2022-08-20T06:17:22.330Z,99.90
2022-08-20T06:19:52.400Z,99.90
2022-08-20T06:22:24.434Z,99.90
2022-08-20T06:24:55.099Z,99.90
2022-08-20T06:27:22.493Z,99.90
2022-08-20T06:29:50.550Z,99.90
2022-08-20T06:32:19.785Z,99.90
2022-08-20T06:34:55.731Z,99.90
2022-08-20T06:37:31.099Z,99.90
2022-08-20T06:40:06.092Z,99.90
2022-08-20T06:42:33.195Z,99.90
2022-08-20T06:45:00.518Z,99.90
2022-08-20T06:47:27.362Z,99.90
2022-08-20T06:49:54.196Z,99.90
2022-08-20T06:52:27.072Z,99.90
2022-08-20T06:55:10.692Z,99.90
2022-08-20T06:57:38.732Z,99.90
2022-08-20T07:00:09.336Z,99.90
2022-08-20T07:02:37.328Z,99.90
2022-08-20T07:05:05.304Z,99.90
2022-08-20T07:07:32.859Z,99.90
2022-08-20T07:10:09.109Z,99.90
2022-08-20T07:12:36.407Z,99.90
2022-08-20T07:15:10.151Z,99.90
2022-08-20T07:17:37.984Z,99.90
2022-08-20T07:20:15.346Z,99.90
2022-08-20T07:22:43.319Z,99.90
2022-08-20T07:25:14.338Z,99.90
2022-08-20T07:27:42.971Z,99.90
2022-08-20T07:30:32.924Z,99.90
2022-08-20T07:33:19.826Z,99.90
2022-08-20T07:35:49.008Z,99.90
2022-08-20T07:38:24.797Z,99.90
2022-08-20T07:41:04.947Z,99.90
2022-08-20T07:43:33.367Z,99.90
2022-08-20T07:46:02.830Z,99.90
2022-08-20T07:48:32.325Z,99.90
2022-08-20T07:51:04.295Z,99.90
2022-08-20T07:53:35.819Z,99.90
2022-08-20T07:56:07.937Z,99.90
2022-08-20T07:58:36.634Z,99.90
2022-08-20T08:01:05.788Z,99.90
2022-08-20T08:03:39.612Z,99.90
2022-08-20T08:06:09.579Z,99.90
2022-08-20T08:08:36.714Z,99.90
2022-08-20T08:11:04.517Z,99.90
2022-08-20T08:13:36.338Z,99.90
2022-08-20T08:16:06.558Z,99.90
2022-08-20T08:18:45.804Z,99.90
2022-08-20T08:21:13.188Z,99.90
2022-08-20T08:23:44.358Z,99.90
2022-08-20T08:26:16.006Z,99.90
2022-08-20T08:28:45.604Z,99.90
2022-08-20T08:31:12.660Z,99.90
2022-08-20T08:33:40.755Z,99.90
2022-08-20T08:36:12.863Z,99.90
2022-08-20T08:38:44.244Z,99.90
2022-08-20T08:41:24.516Z,99.90
2022-08-20T08:43:53.344Z,99.90
2022-08-20T08:46:26.804Z,99.90
2022-08-20T08:48:56.150Z,99.90
2022-08-20T08:51:57.305Z,99.90
2022-08-20T08:54:25.647Z,99.90
2022-08-20T08:56:53.250Z,99.90
2022-08-20T08:59:21.208Z,99.90
2022-08-20T09:01:54.682Z,99.90
2022-08-20T09:04:23.550Z,99.90
2022-08-20T09:06:53.454Z,99.90
2022-08-20T09:09:25.408Z,99.90
2022-08-20T09:11:53.885Z,99.90
2022-08-20T09:14:22.879Z,99.90
2022-08-20T09:16:52.438Z,99.90
2022-08-20T09:19:21.336Z,99.90
2022-08-20T09:21:48.331Z,99.90
2022-08-20T09:24:15.252Z,99.90
2022-08-20T09:26:42.092Z,99.90
2022-08-20T09:29:09.818Z,99.90
2022-08-20T09:31:37.808Z,99.90
2022-08-20T09:34:06.129Z,99.90
2022-08-20T09:36:33.331Z,99.90
2022-08-20T09:39:02.608Z,99.90
2022-08-20T09:41:30.593Z,99.90
2022-08-20T09:43:57.351Z,99.90
2022-08-20T09:46:27.238Z,99.90
2022-08-20T09:48:55.035Z,99.90
2022-08-20T09:51:22.211Z,99.90
2022-08-20T09:53:49.052Z,99.90
2022-08-20T09:56:20.269Z,99.90
2022-08-20T09:58:52.747Z,99.90
2022-08-20T10:01:21.082Z,99.90
2022-08-20T10:03:49.159Z,99.90
2022-08-20T10:06:17.867Z,99.90
2022-08-20T10:08:44.618Z,99.90
2022-08-20T10:11:11.918Z,99.90
2022-08-20T10:13:38.750Z,99.90
2022-08-20T10:16:05.970Z,99.90
2022-08-20T10:18:32.839Z,99.90
2022-08-20T10:20:59.609Z,99.90
2022-08-20T10:23:26.484Z,99.90
2022-08-20T10:25:53.271Z,99.90
2022-08-20T10:28:20.003Z,99.90
2022-08-20T10:30:47.084Z,99.90
2022-08-20T10:33:13.895Z,99.90
2022-08-20T10:35:40.745Z,99.90
2022-08-20T10:38:07.619Z,99.90
2022-08-20T10:40:34.596Z,99.90
2022-08-20T10:43:04.556Z,99.90
2022-08-20T10:45:31.384Z,99.90
2022-08-20T10:48:03.074Z,99.90
2022-08-20T10:50:30.195Z,99.90
2022-08-20T10:52:57.398Z,99.90
2022-08-20T10:55:24.233Z,99.90
2022-08-20T10:57:51.075Z,99.90
2022-08-20T11:00:19.030Z,99.90
2022-08-20T11:02:45.799Z,99.90
2022-08-20T11:05:12.616Z,99.90
2022-08-20T11:07:55.411Z,99.90
2022-08-20T11:10:25.606Z,99.90
2022-08-20T11:38:27.130Z,99.90
2022-08-20T11:40:54.008Z,99.90
2022-08-20T11:43:20.907Z,99.90
2022-08-20T11:45:54.187Z,99.90
2022-08-20T11:48:20.948Z,99.90
2022-08-20T11:50:48.040Z,99.90
2022-08-20T11:53:14.967Z,99.90
2022-08-20T11:55:42.073Z,99.90
2022-08-20T11:58:09.650Z,99.90
2022-08-20T12:00:39.280Z,99.90
2022-08-20T12:03:09.377Z,99.90
2022-08-20T12:05:37.687Z,99.90
2022-08-20T12:08:04.967Z,99.90
2022-08-20T12:10:32.169Z,99.90
2022-08-20T12:12:59.080Z,99.90
2022-08-20T12:15:27.141Z,99.90
2022-08-20T12:17:54.677Z,99.90
2022-08-20T12:20:22.462Z,99.90
2022-08-20T12:22:49.235Z,99.90
2022-08-20T12:25:16.216Z,99.90
2022-08-20T12:27:42.916Z,99.90
2022-08-20T12:30:16.018Z,99.90
2022-08-20T12:32:42.917Z,99.90
2022-08-20T12:35:10.634Z,99.90
2022-08-20T12:37:37.845Z,99.90
2022-08-20T12:40:09.183Z,99.90
2022-08-20T12:42:36.378Z,99.90
2022-08-20T12:45:04.213Z,99.90
2022-08-20T12:47:35.940Z,99.60
2022-08-20T12:50:11.902Z,98.60
2022-08-20T12:52:38.852Z,97.80
2022-08-20T12:55:07.176Z,97.50
2022-08-20T12:57:39.278Z,97.60
2022-08-20T13:00:15.914Z,97.50
2022-08-20T13:02:43.445Z,97.40
2022-08-20T13:05:10.812Z,96.20
2022-08-20T13:07:37.997Z,95.50
2022-08-20T13:10:06.350Z,95.10
2022-08-20T13:12:33.126Z,94.90
2022-08-20T13:14:59.890Z,94.70
2022-08-20T13:17:38.336Z,94.20
2022-08-20T13:20:15.369Z,94.00
2022-08-20T13:22:42.636Z,93.60
2022-08-20T13:25:11.429Z,93.50
2022-08-20T13:27:40.267Z,93.40
2022-08-20T13:30:08.878Z,93.20
2022-08-20T13:32:35.623Z,92.90
2022-08-20T13:35:02.579Z,92.30
2022-08-20T13:37:29.987Z,92.30
2022-08-20T13:39:58.148Z,91.60
2022-08-20T13:42:26.250Z,91.80
2022-08-20T13:44:53.828Z,92.10
2022-08-20T13:47:23.468Z,92.40
2022-08-20T13:50:03.293Z,92.90
2022-08-20T13:52:30.135Z,93.20
2022-08-20T13:54:57.648Z,93.80
2022-08-20T13:57:25.079Z,94.10
2022-08-20T13:59:55.538Z,93.70
2022-08-20T14:02:22.449Z,93.90
2022-08-20T14:04:49.585Z,94.10
2022-08-20T14:07:19.403Z,94.40
2022-08-20T14:09:48.332Z,94.30
2022-08-20T14:12:16.740Z,94.00
2022-08-20T14:14:43.771Z,93.90
2022-08-20T14:17:23.723Z,94.00
2022-08-20T14:19:51.589Z,94.50
2022-08-20T14:22:18.873Z,94.10
2022-08-20T14:24:48.478Z,94.60
2022-08-20T14:27:17.368Z,94.20
2022-08-20T14:29:45.225Z,94.90
2022-08-20T14:32:12.416Z,94.90
2022-08-20T14:34:39.519Z,94.60
2022-08-20T14:37:26.442Z,94.80
2022-08-20T14:39:57.072Z,94.60
2022-08-20T14:42:26.448Z,94.50
2022-08-20T14:44:53.458Z,94.50
2022-08-20T14:47:23.352Z,93.90
2022-08-20T14:49:51.406Z,93.80
2022-08-20T14:52:19.243Z,94.20
2022-08-20T14:54:46.323Z,93.30
2022-08-20T14:57:14.651Z,93.60
2022-08-20T14:59:41.950Z,93.60
2022-08-20T15:02:10.235Z,93.80
2022-08-20T15:04:37.468Z,93.70
2022-08-20T15:07:08.110Z,92.80
2022-08-20T15:09:37.948Z,92.80
2022-08-20T15:12:05.096Z,92.10
2022-08-20T15:14:31.907Z,92.70
2022-08-20T15:17:00.388Z,92.90
2022-08-20T15:19:27.605Z,92.90
2022-08-20T15:21:54.337Z,92.60
2022-08-20T15:24:21.724Z,92.40
2022-08-20T15:26:48.587Z,92.20
2022-08-20T15:29:22.696Z,92.20
2022-08-20T15:31:50.858Z,92.00
2022-08-20T15:34:18.315Z,92.10
2022-08-20T15:36:45.779Z,91.40
2022-08-20T15:39:12.539Z,91.30
2022-08-20T15:41:39.404Z,91.20
2022-08-20T15:44:07.133Z,91.10
2022-08-20T15:46:36.194Z,91.40
2022-08-20T15:49:07.803Z,91.40
2022-08-20T15:51:38.355Z,91.60
2022-08-20T15:54:18.432Z,91.90
2022-08-20T15:56:49.827Z,92.00
2022-08-20T15:59:20.188Z,92.00
2022-08-20T16:01:56.572Z,91.80
2022-08-20T16:04:47.915Z,91.80
2022-08-20T16:07:31.892Z,91.40
2022-08-20T16:09:58.780Z,91.60
2022-08-20T16:12:38.789Z,91.50
2022-08-20T16:15:13.542Z,91.00
2022-08-20T16:17:49.478Z,91.30
2022-08-20T16:20:22.293Z,91.20
2022-08-20T16:22:49.676Z,91.20
2022-08-20T16:25:22.729Z,91.20
2022-08-20T16:28:18.089Z,91.20
2022-08-20T16:30:49.703Z,91.10
2022-08-20T16:33:22.894Z,90.90
2022-08-20T16:36:11.109Z,90.80
2022-08-20T16:38:50.864Z,90.70
2022-08-20T16:41:22.971Z,90.80
2022-08-20T16:44:04.219Z,91.00
2022-08-20T16:46:38.117Z,91.30
2022-08-20T16:49:13.462Z,91.30
2022-08-20T16:51:52.049Z,91.20
2022-08-20T16:54:29.660Z,90.70
2022-08-20T16:57:04.612Z,90.30
2022-08-20T16:59:32.294Z,90.40
2022-08-20T17:02:10.459Z,90.30
2022-08-20T17:04:58.747Z,90.30
2022-08-20T17:07:50.165Z,90.30
2022-08-20T17:10:20.533Z,90.50
2022-08-20T17:12:56.252Z,90.60
2022-08-20T17:15:34.982Z,90.20
2022-08-20T17:18:30.704Z,90.30
2022-08-20T17:21:23.447Z,90.60
2022-08-20T17:24:04.138Z,91.00
2022-08-20T17:26:37.026Z,90.90
2022-08-20T17:29:18.804Z,90.80
2022-08-20T17:31:48.601Z,90.70
2022-08-20T17:34:26.934Z,91.00
2022-08-20T17:37:20.846Z,90.80
2022-08-20T17:39:51.482Z,90.90
2022-08-20T17:42:21.754Z,91.10
2022-08-20T17:45:09.835Z,91.30
2022-08-20T17:47:36.807Z,91.60
2022-08-20T17:50:16.678Z,91.40
2022-08-20T17:52:55.624Z,91.30
2022-08-20T17:55:22.485Z,91.50
2022-08-20T17:57:54.491Z,91.90
2022-08-20T18:00:25.386Z,92.20
2022-08-20T18:03:13.979Z,92.50
2022-08-20T18:05:40.766Z,92.70
2022-08-20T18:08:24.948Z,92.90
2022-08-20T18:11:18.374Z,92.90
2022-08-20T18:14:07.334Z,93.20
2022-08-20T18:16:47.608Z,93.20
2022-08-20T18:19:19.751Z,93.30
2022-08-20T18:22:11.921Z,93.50
2022-08-20T18:24:44.943Z,93.40
2022-08-20T18:27:17.820Z,93.60
2022-08-20T18:29:49.710Z,93.60
2022-08-20T18:32:35.198Z,93.80
2022-08-20T18:35:07.946Z,94.20
2022-08-20T18:37:34.751Z,94.30
2022-08-20T18:40:17.048Z,94.50
2022-08-20T18:42:45.731Z,94.70
2022-08-20T18:45:12.594Z,95.10
2022-08-20T18:47:42.840Z,95.30
2022-08-20T18:50:32.390Z,95.60
2022-08-20T18:53:13.267Z,95.80
2022-08-20T18:56:09.382Z,96.00
2022-08-20T18:59:05.513Z,96.30
2022-08-20T19:01:35.884Z,96.60
2022-08-20T19:04:05.457Z,96.60
2022-08-20T19:06:41.797Z,97.00
2022-08-20T19:09:27.497Z,97.20
2022-08-20T19:12:32.588Z,97.40
2022-08-20T19:15:12.614Z,97.60
2022-08-20T19:17:57.107Z,97.90
2022-08-20T19:20:26.877Z,98.10
2022-08-20T19:22:54.835Z,98.30
2022-08-20T19:25:31.149Z,98.40
2022-08-20T19:28:20.499Z,98.70
2022-08-20T19:30:47.312Z,98.70
2022-08-20T19:33:14.092Z,99.00
2022-08-20T19:35:40.976Z,99.10
2022-08-20T19:38:14.803Z,99.20
2022-08-20T19:40:43.597Z,99.40
2022-08-20T19:43:16.819Z,99.60
2022-08-20T19:45:48.337Z,99.70
2022-08-20T19:48:31.664Z,99.90
2022-08-20T19:51:10.834Z,99.90
2022-08-20T19:53:42.258Z,99.90
2022-08-20T19:56:15.394Z,99.90
2022-08-20T19:58:42.529Z,99.90
2022-08-20T20:01:20.535Z,99.90
2022-08-20T20:03:58.002Z,99.90
2022-08-20T20:06:27.970Z,99.90
2022-08-20T20:08:57.549Z,99.90
2022-08-20T20:11:51.449Z,99.90
2022-08-20T20:14:18.665Z,99.90
2022-08-20T20:16:45.791Z,99.90
2022-08-20T20:19:26.208Z,99.90
2022-08-20T20:22:19.752Z,99.90
2022-08-20T20:24:50.701Z,99.90
2022-08-20T20:27:22.136Z,99.90
2022-08-20T20:29:49.286Z,99.90
2022-08-20T20:32:21.302Z,99.90
2022-08-20T20:34:55.211Z,99.90
2022-08-20T20:37:49.814Z,99.90
2022-08-20T20:40:30.581Z,99.90
2022-08-20T20:43:06.919Z,99.90
2022-08-20T20:45:43.024Z,99.90
2022-08-20T20:48:24.945Z,99.90
2022-08-20T20:50:52.096Z,99.90
2022-08-20T20:53:49.544Z,99.90
2022-08-20T20:56:33.102Z,99.90
2022-08-20T20:59:05.902Z,99.90
2022-08-20T21:01:48.142Z,99.90
2022-08-20T21:04:21.266Z,99.90
2022-08-20T21:06:48.630Z,99.90
2022-08-20T21:09:15.694Z,99.90
2022-08-20T21:11:42.619Z,99.90
2022-08-20T21:14:09.558Z,99.90
2022-08-20T21:16:36.369Z,99.90
2022-08-20T21:19:07.286Z,99.90
2022-08-20T21:21:34.389Z,99.90
2022-08-20T21:24:01.261Z,99.90
2022-08-20T21:26:28.128Z,99.90
2022-08-20T21:28:55.121Z,99.90
2022-08-20T21:31:24.038Z,99.90
2022-08-20T21:33:50.851Z,99.90
2022-08-20T21:36:17.666Z,99.90
2022-08-20T21:38:44.425Z,99.90
2022-08-20T21:41:11.271Z,99.90
2022-08-20T21:43:38.110Z,99.90
2022-08-20T21:46:04.932Z,99.90
2022-08-20T21:48:32.548Z,99.90
2022-08-20T21:50:59.286Z,99.90
2022-08-20T21:53:26.224Z,99.90
2022-08-20T21:55:53.095Z,99.90
2022-08-20T21:58:19.916Z,99.90
2022-08-20T22:01:01.773Z,99.90
2022-08-20T22:03:34.152Z,99.90
2022-08-20T22:06:05.193Z,99.90
2022-08-20T22:08:32.041Z,99.90
2022-08-20T22:10:59.623Z,99.90
2022-08-20T22:13:31.412Z,99.90
2022-08-20T22:16:07.425Z,99.90
2022-08-20T22:18:34.863Z,99.90
2022-08-20T22:21:02.032Z,99.90
2022-08-20T22:23:29.064Z,99.90
2022-08-20T22:25:55.822Z,99.90
2022-08-20T22:28:23.225Z,99.90
2022-08-20T22:30:50.281Z,99.90
2022-08-20T22:33:21.194Z,99.90
2022-08-20T22:35:53.229Z,99.90
2022-08-20T22:38:20.092Z,99.90
2022-08-20T22:40:47.169Z,99.90
2022-08-20T22:43:14.555Z,99.90
2022-08-20T22:45:42.625Z,99.90
2022-08-20T22:48:09.371Z,99.90
2022-08-20T22:50:37.141Z,99.90
2022-08-20T22:53:04.349Z,99.90
2022-08-20T22:55:31.095Z,99.90
2022-08-20T22:57:57.874Z,99.90
2022-08-20T23:00:25.088Z,99.90
2022-08-20T23:02:53.463Z,99.90
2022-08-20T23:05:22.100Z,99.90
2022-08-20T23:07:53.801Z,99.90
2022-08-20T23:10:24.683Z,99.90
2022-08-20T23:12:51.593Z,99.90
2022-08-20T23:15:18.917Z,99.90
2022-08-20T23:17:45.762Z,99.90
2022-08-20T23:20:14.422Z,99.90
2022-08-20T23:22:41.124Z,99.90
2022-08-20T23:25:09.056Z,99.90
2022-08-20T23:27:40.163Z,99.90
2022-08-20T23:30:07.631Z,99.90
2022-08-20T23:32:34.370Z,99.90
2022-08-20T23:35:01.190Z,99.90
2022-08-20T23:37:27.956Z,99.90
2022-08-20T23:39:54.789Z,99.90
2022-08-20T23:42:21.595Z,99.90
2022-08-20T23:44:48.305Z,99.90
2022-08-20T23:47:19.303Z,99.90
2022-08-20T23:49:46.366Z,99.90
2022-08-20T23:52:13.118Z,99.90
2022-08-20T23:54:40.034Z,99.90
2022-08-20T23:57:08.250Z,99.90
2022-08-20T23:59:35.621Z,99.90
